sensor_id;sensor_type;location;lat;lon;timestamp;pressure;altitude;pressure_sealevel;temperature
60966;BMP180;46834;51.100;6.886;2022-12-18T00:00:06;102219.00;;;0.20
60966;BMP180;46834;51.100;6.886;2022-12-18T00:02:32;102193.00;;;0.20
60966;BMP180;46834;51.100;6.886;2022-12-18T00:05:00;102185.00;;;0.20
60966;BMP180;46834;51.100;6.886;2022-12-18T00:07:26;102188.00;;;0.20
60966;BMP180;46834;51.100;6.886;2022-12-18T00:09:51;102191.00;;;0.10
60966;BMP180;46834;51.100;6.886;2022-12-18T00:12:17;102203.00;;;0.10
60966;BMP180;46834;51.100;6.886;2022-12-18T00:14:43;102211.00;;;0.10
60966;BMP180;46834;51.100;6.886;2022-12-18T00:17:08;102208.00;;;0.10
60966;BMP180;46834;51.100;6.886;2022-12-18T00:19:34;102199.00;;;0.10
60966;BMP180;46834;51.100;6.886;2022-12-18T00:22:00;102204.00;;;0.20
60966;BMP180;46834;51.100;6.886;2022-12-18T00:24:25;102209.00;;;0.10
60966;BMP180;46834;51.100;6.886;2022-12-18T00:26:51;102209.00;;;0.10
60966;BMP180;46834;51.100;6.886;2022-12-18T00:29:16;102215.00;;;0.20
60966;BMP180;46834;51.100;6.886;2022-12-18T00:31:43;102220.00;;;0.20
60966;BMP180;46834;51.100;6.886;2022-12-18T00:34:12;102219.00;;;0.20
60966;BMP180;46834;51.100;6.886;2022-12-18T00:36:40;102222.00;;;0.20
60966;BMP180;46834;51.100;6.886;2022-12-18T00:39:06;102226.00;;;0.20
60966;BMP180;46834;51.100;6.886;2022-12-18T00:41:32;102223.00;;;0.20
60966;BMP180;46834;51.100;6.886;2022-12-18T00:44:18;102222.00;;;0.20
60966;BMP180;46834;51.100;6.886;2022-12-18T00:46:46;102216.00;;;0.10
60966;BMP180;46834;51.100;6.886;2022-12-18T00:49:15;102208.00;;;0.10
60966;BMP180;46834;51.100;6.886;2022-12-18T00:51:41;102198.00;;;0.10
60966;BMP180;46834;51.100;6.886;2022-12-18T00:54:07;102196.00;;;0.10
60966;BMP180;46834;51.100;6.886;2022-12-18T00:56:32;102190.00;;;0.10
60966;BMP180;46834;51.100;6.886;2022-12-18T00:59:00;102194.00;;;0.10
60966;BMP180;46834;51.100;6.886;2022-12-18T01:01:25;102210.00;;;0.00
60966;BMP180;46834;51.100;6.886;2022-12-18T01:03:51;102208.00;;;0.00
60966;BMP180;46834;51.100;6.886;2022-12-18T01:06:17;102209.00;;;0.00
60966;BMP180;46834;51.100;6.886;2022-12-18T01:08:44;102192.00;;;0.00
60966;BMP180;46834;51.100;6.886;2022-12-18T01:11:13;102198.00;;;0.10
60966;BMP180;46834;51.100;6.886;2022-12-18T01:13:40;102174.00;;;0.10
60966;BMP180;46834;51.100;6.886;2022-12-18T01:16:06;102190.00;;;0.10
60966;BMP180;46834;51.100;6.886;2022-12-18T01:18:32;102190.00;;;0.10
60966;BMP180;46834;51.100;6.886;2022-12-18T01:20:58;102187.00;;;0.10
60966;BMP180;46834;51.100;6.886;2022-12-18T01:23:24;102201.00;;;0.10
60966;BMP180;46834;51.100;6.886;2022-12-18T01:25:49;102212.00;;;0.10
60966;BMP180;46834;51.100;6.886;2022-12-18T01:28:15;102214.00;;;0.10
60966;BMP180;46834;51.100;6.886;2022-12-18T01:30:41;102207.00;;;0.10
60966;BMP180;46834;51.100;6.886;2022-12-18T01:33:06;102200.00;;;0.10
60966;BMP180;46834;51.100;6.886;2022-12-18T01:35:32;102202.00;;;0.10
60966;BMP180;46834;51.100;6.886;2022-12-18T01:37:58;102191.00;;;0.10
60966;BMP180;46834;51.100;6.886;2022-12-18T01:40:24;102203.00;;;0.10
60966;BMP180;46834;51.100;6.886;2022-12-18T01:42:52;102199.00;;;0.10
60966;BMP180;46834;51.100;6.886;2022-12-18T01:45:25;102211.00;;;0.10
60966;BMP180;46834;51.100;6.886;2022-12-18T01:47:56;102200.00;;;0.10
60966;BMP180;46834;51.100;6.886;2022-12-18T01:50:39;102182.00;;;0.00
60966;BMP180;46834;51.100;6.886;2022-12-18T01:53:16;102191.00;;;0.00
60966;BMP180;46834;51.100;6.886;2022-12-18T01:55:47;102200.00;;;0.00
60966;BMP180;46834;51.100;6.886;2022-12-18T01:58:14;102199.00;;;0.10
60966;BMP180;46834;51.100;6.886;2022-12-18T02:00:40;102180.00;;;0.00
60966;BMP180;46834;51.100;6.886;2022-12-18T02:03:06;102200.00;;;0.10
60966;BMP180;46834;51.100;6.886;2022-12-18T02:05:57;102196.00;;;0.00
60966;BMP180;46834;51.100;6.886;2022-12-18T02:08:40;102202.00;;;0.00
60966;BMP180;46834;51.100;6.886;2022-12-18T02:11:22;102201.00;;;0.00
60966;BMP180;46834;51.100;6.886;2022-12-18T02:17:08;102176.00;;;0.00
60966;BMP180;46834;51.100;6.886;2022-12-18T02:22:26;102198.00;;;0.00
60966;BMP180;46834;51.100;6.886;2022-12-18T02:27:33;102211.00;;;0.10
60966;BMP180;46834;51.100;6.886;2022-12-18T02:30:02;102204.00;;;0.10
60966;BMP180;46834;51.100;6.886;2022-12-18T02:32:35;102196.00;;;0.10
60966;BMP180;46834;51.100;6.886;2022-12-18T02:35:06;102191.00;;;0.10
60966;BMP180;46834;51.100;6.886;2022-12-18T02:37:34;102192.00;;;0.20
60966;BMP180;46834;51.100;6.886;2022-12-18T02:40:03;102185.00;;;0.10
60966;BMP180;46834;51.100;6.886;2022-12-18T02:42:30;102184.00;;;0.10
60966;BMP180;46834;51.100;6.886;2022-12-18T02:44:56;102162.00;;;0.10
60966;BMP180;46834;51.100;6.886;2022-12-18T02:47:26;102166.00;;;0.10
60966;BMP180;46834;51.100;6.886;2022-12-18T02:50:05;102169.00;;;0.10
60966;BMP180;46834;51.100;6.886;2022-12-18T02:53:01;102170.00;;;0.10
60966;BMP180;46834;51.100;6.886;2022-12-18T03:04:14;102194.00;;;0.10
60966;BMP180;46834;51.100;6.886;2022-12-18T03:06:47;102176.00;;;0.10
60966;BMP180;46834;51.100;6.886;2022-12-18T03:09:39;102168.00;;;0.10
60966;BMP180;46834;51.100;6.886;2022-12-18T03:12:20;102180.00;;;0.10
60966;BMP180;46834;51.100;6.886;2022-12-18T03:17:33;102175.00;;;0.10
60966;BMP180;46834;51.100;6.886;2022-12-18T03:20:09;102164.00;;;0.10
60966;BMP180;46834;51.100;6.886;2022-12-18T03:22:38;102166.00;;;0.10
60966;BMP180;46834;51.100;6.886;2022-12-18T03:25:08;102150.00;;;0.10
60966;BMP180;46834;51.100;6.886;2022-12-18T03:27:40;102163.00;;;0.10
60966;BMP180;46834;51.100;6.886;2022-12-18T03:30:13;102157.00;;;0.10
60966;BMP180;46834;51.100;6.886;2022-12-18T03:33:05;102159.00;;;0.10
60966;BMP180;46834;51.100;6.886;2022-12-18T03:35:39;102154.00;;;0.10
60966;BMP180;46834;51.100;6.886;2022-12-18T03:38:06;102151.00;;;0.10
60966;BMP180;46834;51.100;6.886;2022-12-18T03:40:45;102146.00;;;0.10
60966;BMP180;46834;51.100;6.886;2022-12-18T03:46:26;102147.00;;;0.10
60966;BMP180;46834;51.100;6.886;2022-12-18T03:49:14;102159.00;;;0.10
60966;BMP180;46834;51.100;6.886;2022-12-18T03:52:01;102152.00;;;0.10
60966;BMP180;46834;51.100;6.886;2022-12-18T03:54:30;102158.00;;;0.10
60966;BMP180;46834;51.100;6.886;2022-12-18T03:57:07;102151.00;;;0.10
60966;BMP180;46834;51.100;6.886;2022-12-18T03:59:36;102144.00;;;0.10
60966;BMP180;46834;51.100;6.886;2022-12-18T04:02:06;102145.00;;;0.10
60966;BMP180;46834;51.100;6.886;2022-12-18T04:04:35;102146.00;;;0.20
60966;BMP180;46834;51.100;6.886;2022-12-18T04:07:03;102149.00;;;0.20
60966;BMP180;46834;51.100;6.886;2022-12-18T04:09:32;102138.00;;;0.20
60966;BMP180;46834;51.100;6.886;2022-12-18T04:11:58;102133.00;;;0.20
60966;BMP180;46834;51.100;6.886;2022-12-18T04:14:24;102137.00;;;0.20
60966;BMP180;46834;51.100;6.886;2022-12-18T04:16:49;102132.00;;;0.20
60966;BMP180;46834;51.100;6.886;2022-12-18T04:19:15;102137.00;;;0.20
60966;BMP180;46834;51.100;6.886;2022-12-18T04:21:41;102133.00;;;0.20
60966;BMP180;46834;51.100;6.886;2022-12-18T04:24:06;102143.00;;;0.20
60966;BMP180;46834;51.100;6.886;2022-12-18T04:26:32;102129.00;;;0.20
60966;BMP180;46834;51.100;6.886;2022-12-18T04:28:58;102139.00;;;0.20
60966;BMP180;46834;51.100;6.886;2022-12-18T04:31:23;102125.00;;;0.20
60966;BMP180;46834;51.100;6.886;2022-12-18T04:33:49;102137.00;;;0.20
60966;BMP180;46834;51.100;6.886;2022-12-18T04:36:15;102135.00;;;0.20
60966;BMP180;46834;51.100;6.886;2022-12-18T04:38:40;102131.00;;;0.20
60966;BMP180;46834;51.100;6.886;2022-12-18T04:41:06;102145.00;;;0.20
60966;BMP180;46834;51.100;6.886;2022-12-18T04:43:32;102137.00;;;0.20
60966;BMP180;46834;51.100;6.886;2022-12-18T04:46:06;102142.00;;;0.20
60966;BMP180;46834;51.100;6.886;2022-12-18T04:48:33;102138.00;;;0.20
60966;BMP180;46834;51.100;6.886;2022-12-18T04:50:58;102136.00;;;0.20
60966;BMP180;46834;51.100;6.886;2022-12-18T04:53:24;102137.00;;;0.20
60966;BMP180;46834;51.100;6.886;2022-12-18T04:55:50;102116.00;;;0.10
60966;BMP180;46834;51.100;6.886;2022-12-18T04:58:16;102126.00;;;0.10
60966;BMP180;46834;51.100;6.886;2022-12-18T05:00:41;102130.00;;;0.10
60966;BMP180;46834;51.100;6.886;2022-12-18T05:03:07;102128.00;;;0.10
60966;BMP180;46834;51.100;6.886;2022-12-18T05:05:35;102106.00;;;0.00
60966;BMP180;46834;51.100;6.886;2022-12-18T05:08:01;102108.00;;;0.00
60966;BMP180;46834;51.100;6.886;2022-12-18T05:10:26;102113.00;;;0.00
60966;BMP180;46834;51.100;6.886;2022-12-18T05:12:52;102098.00;;;0.00
60966;BMP180;46834;51.100;6.886;2022-12-18T05:15:29;102108.00;;;0.00
60966;BMP180;46834;51.100;6.886;2022-12-18T05:17:56;102111.00;;;0.00
60966;BMP180;46834;51.100;6.886;2022-12-18T05:20:23;102113.00;;;-0.10
60966;BMP180;46834;51.100;6.886;2022-12-18T05:22:48;102126.00;;;-0.10
60966;BMP180;46834;51.100;6.886;2022-12-18T05:25:14;102109.00;;;-0.10
60966;BMP180;46834;51.100;6.886;2022-12-18T05:27:40;102108.00;;;-0.10
60966;BMP180;46834;51.100;6.886;2022-12-18T05:30:07;102107.00;;;-0.20
60966;BMP180;46834;51.100;6.886;2022-12-18T05:32:33;102105.00;;;-0.20
60966;BMP180;46834;51.100;6.886;2022-12-18T05:34:59;102109.00;;;-0.20
60966;BMP180;46834;51.100;6.886;2022-12-18T05:37:25;102121.00;;;-0.20
60966;BMP180;46834;51.100;6.886;2022-12-18T05:39:51;102112.00;;;-0.20
60966;BMP180;46834;51.100;6.886;2022-12-18T05:42:16;102133.00;;;-0.10
60966;BMP180;46834;51.100;6.886;2022-12-18T05:44:43;102121.00;;;-0.20
60966;BMP180;46834;51.100;6.886;2022-12-18T05:47:09;102133.00;;;-0.10
60966;BMP180;46834;51.100;6.886;2022-12-18T05:49:34;102128.00;;;-0.10
60966;BMP180;46834;51.100;6.886;2022-12-18T05:52:01;102139.00;;;-0.10
60966;BMP180;46834;51.100;6.886;2022-12-18T05:54:27;102144.00;;;-0.10
60966;BMP180;46834;51.100;6.886;2022-12-18T05:56:53;102151.00;;;-0.10
60966;BMP180;46834;51.100;6.886;2022-12-18T05:59:19;102148.00;;;-0.10
60966;BMP180;46834;51.100;6.886;2022-12-18T06:01:45;102159.00;;;-0.10
60966;BMP180;46834;51.100;6.886;2022-12-18T06:04:11;102164.00;;;-0.10
60966;BMP180;46834;51.100;6.886;2022-12-18T06:06:38;102167.00;;;-0.10
60966;BMP180;46834;51.100;6.886;2022-12-18T06:09:04;102163.00;;;-0.10
60966;BMP180;46834;51.100;6.886;2022-12-18T06:11:35;102171.00;;;0.00
60966;BMP180;46834;51.100;6.886;2022-12-18T06:14:03;102181.00;;;0.00
60966;BMP180;46834;51.100;6.886;2022-12-18T06:16:30;102179.00;;;0.00
60966;BMP180;46834;51.100;6.886;2022-12-18T06:19:02;102172.00;;;-0.10
60966;BMP180;46834;51.100;6.886;2022-12-18T06:21:29;102193.00;;;0.00
60966;BMP180;46834;51.100;6.886;2022-12-18T06:23:55;102193.00;;;0.00
60966;BMP180;46834;51.100;6.886;2022-12-18T06:26:21;102202.00;;;-0.10
60966;BMP180;46834;51.100;6.886;2022-12-18T06:28:47;102182.00;;;-0.10
60966;BMP180;46834;51.100;6.886;2022-12-18T06:31:13;102193.00;;;-0.10
60966;BMP180;46834;51.100;6.886;2022-12-18T06:33:39;102179.00;;;-0.10
60966;BMP180;46834;51.100;6.886;2022-12-18T06:36:11;102170.00;;;-0.10
60966;BMP180;46834;51.100;6.886;2022-12-18T06:38:41;102177.00;;;-0.10
60966;BMP180;46834;51.100;6.886;2022-12-18T06:41:15;102165.00;;;-0.10
60966;BMP180;46834;51.100;6.886;2022-12-18T06:43:42;102165.00;;;-0.10
60966;BMP180;46834;51.100;6.886;2022-12-18T06:46:08;102155.00;;;-0.20
60966;BMP180;46834;51.100;6.886;2022-12-18T06:48:34;102164.00;;;-0.20
60966;BMP180;46834;51.100;6.886;2022-12-18T06:51:01;102154.00;;;-0.20
60966;BMP180;46834;51.100;6.886;2022-12-18T06:53:27;102157.00;;;-0.20
60966;BMP180;46834;51.100;6.886;2022-12-18T06:56:01;102153.00;;;-0.20
60966;BMP180;46834;51.100;6.886;2022-12-18T06:58:27;102152.00;;;-0.20
60966;BMP180;46834;51.100;6.886;2022-12-18T07:00:53;102151.00;;;-0.20
60966;BMP180;46834;51.100;6.886;2022-12-18T07:03:19;102146.00;;;-0.20
60966;BMP180;46834;51.100;6.886;2022-12-18T07:05:44;102140.00;;;-0.30
60966;BMP180;46834;51.100;6.886;2022-12-18T07:08:10;102137.00;;;-0.30
60966;BMP180;46834;51.100;6.886;2022-12-18T07:10:43;102135.00;;;-0.40
60966;BMP180;46834;51.100;6.886;2022-12-18T07:13:09;102129.00;;;-0.40
60966;BMP180;46834;51.100;6.886;2022-12-18T07:15:35;102145.00;;;-0.40
60966;BMP180;46834;51.100;6.886;2022-12-18T07:18:01;102139.00;;;-0.40
60966;BMP180;46834;51.100;6.886;2022-12-18T07:20:26;102145.00;;;-0.40
60966;BMP180;46834;51.100;6.886;2022-12-18T07:22:52;102147.00;;;-0.40
60966;BMP180;46834;51.100;6.886;2022-12-18T07:25:18;102139.00;;;-0.50
60966;BMP180;46834;51.100;6.886;2022-12-18T07:27:43;102139.00;;;-0.50
60966;BMP180;46834;51.100;6.886;2022-12-18T07:30:10;102146.00;;;-0.50
60966;BMP180;46834;51.100;6.886;2022-12-18T07:32:36;102139.00;;;-0.50
60966;BMP180;46834;51.100;6.886;2022-12-18T07:35:01;102135.00;;;-0.50
60966;BMP180;46834;51.100;6.886;2022-12-18T07:37:27;102129.00;;;-0.50
60966;BMP180;46834;51.100;6.886;2022-12-18T07:39:53;102126.00;;;-0.50
60966;BMP180;46834;51.100;6.886;2022-12-18T07:42:19;102118.00;;;-0.50
60966;BMP180;46834;51.100;6.886;2022-12-18T07:45:00;102136.00;;;-0.50
60966;BMP180;46834;51.100;6.886;2022-12-18T07:47:33;102131.00;;;-0.50
60966;BMP180;46834;51.100;6.886;2022-12-18T07:49:59;102121.00;;;-0.50
60966;BMP180;46834;51.100;6.886;2022-12-18T07:52:24;102110.00;;;-0.50
60966;BMP180;46834;51.100;6.886;2022-12-18T07:54:50;102132.00;;;-0.50
60966;BMP180;46834;51.100;6.886;2022-12-18T07:57:17;102140.00;;;-0.50
60966;BMP180;46834;51.100;6.886;2022-12-18T07:59:43;102136.00;;;-0.50
60966;BMP180;46834;51.100;6.886;2022-12-18T08:02:08;102136.00;;;-0.50
60966;BMP180;46834;51.100;6.886;2022-12-18T08:04:34;102107.00;;;-0.40
60966;BMP180;46834;51.100;6.886;2022-12-18T08:07:00;102104.00;;;-0.40
60966;BMP180;46834;51.100;6.886;2022-12-18T08:09:26;102108.00;;;-0.40
60966;BMP180;46834;51.100;6.886;2022-12-18T08:11:51;102103.00;;;-0.40
60966;BMP180;46834;51.100;6.886;2022-12-18T08:14:17;102086.00;;;-0.40
60966;BMP180;46834;51.100;6.886;2022-12-18T08:16:43;102098.00;;;-0.40
60966;BMP180;46834;51.100;6.886;2022-12-18T08:19:10;102099.00;;;-0.40
60966;BMP180;46834;51.100;6.886;2022-12-18T08:21:36;102082.00;;;-0.40
60966;BMP180;46834;51.100;6.886;2022-12-18T08:24:02;102088.00;;;-0.40
60966;BMP180;46834;51.100;6.886;2022-12-18T08:26:30;102072.00;;;-0.40
60966;BMP180;46834;51.100;6.886;2022-12-18T08:28:58;102074.00;;;-0.30
60966;BMP180;46834;51.100;6.886;2022-12-18T08:31:27;102080.00;;;-0.30
60966;BMP180;46834;51.100;6.886;2022-12-18T08:33:53;102068.00;;;-0.30
60966;BMP180;46834;51.100;6.886;2022-12-18T08:36:20;102067.00;;;-0.30
60966;BMP180;46834;51.100;6.886;2022-12-18T08:38:47;102071.00;;;-0.20
60966;BMP180;46834;51.100;6.886;2022-12-18T08:41:15;102067.00;;;-0.20
60966;BMP180;46834;51.100;6.886;2022-12-18T08:43:41;102065.00;;;-0.20
60966;BMP180;46834;51.100;6.886;2022-12-18T08:46:32;102065.00;;;-0.20
60966;BMP180;46834;51.100;6.886;2022-12-18T08:48:58;102081.00;;;-0.10
60966;BMP180;46834;51.100;6.886;2022-12-18T08:51:24;102060.00;;;-0.10
60966;BMP180;46834;51.100;6.886;2022-12-18T08:53:50;102066.00;;;-0.10
60966;BMP180;46834;51.100;6.886;2022-12-18T08:56:16;102056.00;;;0.00
60966;BMP180;46834;51.100;6.886;2022-12-18T08:58:42;102065.00;;;0.00
60966;BMP180;46834;51.100;6.886;2022-12-18T09:01:11;102064.00;;;0.00
60966;BMP180;46834;51.100;6.886;2022-12-18T09:03:38;102066.00;;;0.10
60966;BMP180;46834;51.100;6.886;2022-12-18T09:06:04;102067.00;;;0.10
60966;BMP180;46834;51.100;6.886;2022-12-18T09:08:30;102075.00;;;0.20
60966;BMP180;46834;51.100;6.886;2022-12-18T09:10:56;102071.00;;;0.20
60966;BMP180;46834;51.100;6.886;2022-12-18T09:13:22;102069.00;;;0.30
60966;BMP180;46834;51.100;6.886;2022-12-18T09:15:54;102054.00;;;0.30
60966;BMP180;46834;51.100;6.886;2022-12-18T09:18:22;102059.00;;;0.30
60966;BMP180;46834;51.100;6.886;2022-12-18T09:20:49;102073.00;;;0.40
60966;BMP180;46834;51.100;6.886;2022-12-18T09:23:17;102064.00;;;0.40
60966;BMP180;46834;51.100;6.886;2022-12-18T09:25:42;102051.00;;;0.40
60966;BMP180;46834;51.100;6.886;2022-12-18T09:28:18;102058.00;;;0.40
60966;BMP180;46834;51.100;6.886;2022-12-18T09:30:48;102067.00;;;0.40
60966;BMP180;46834;51.100;6.886;2022-12-18T09:33:15;102071.00;;;0.50
60966;BMP180;46834;51.100;6.886;2022-12-18T09:35:43;102069.00;;;0.50
60966;BMP180;46834;51.100;6.886;2022-12-18T09:38:14;102038.00;;;0.60
60966;BMP180;46834;51.100;6.886;2022-12-18T09:40:48;102048.00;;;0.60
60966;BMP180;46834;51.100;6.886;2022-12-18T09:43:41;102048.00;;;0.60
60966;BMP180;46834;51.100;6.886;2022-12-18T09:46:16;102044.00;;;0.60
60966;BMP180;46834;51.100;6.886;2022-12-18T09:48:49;102043.00;;;0.60
60966;BMP180;46834;51.100;6.886;2022-12-18T09:51:27;102037.00;;;0.60
60966;BMP180;46834;51.100;6.886;2022-12-18T09:54:01;102044.00;;;0.70
60966;BMP180;46834;51.100;6.886;2022-12-18T09:56:34;102054.00;;;0.70
60966;BMP180;46834;51.100;6.886;2022-12-18T09:59:03;102044.00;;;0.80
60966;BMP180;46834;51.100;6.886;2022-12-18T10:01:31;102041.00;;;0.80
60966;BMP180;46834;51.100;6.886;2022-12-18T10:03:58;102038.00;;;0.90
60966;BMP180;46834;51.100;6.886;2022-12-18T10:09:29;102029.00;;;0.90
60966;BMP180;46834;51.100;6.886;2022-12-18T10:12:19;102021.00;;;0.90
60966;BMP180;46834;51.100;6.886;2022-12-18T10:14:53;102029.00;;;1.00
60966;BMP180;46834;51.100;6.886;2022-12-18T10:17:59;102023.00;;;1.00
60966;BMP180;46834;51.100;6.886;2022-12-18T10:20:45;102017.00;;;1.00
60966;BMP180;46834;51.100;6.886;2022-12-18T10:25:57;102006.00;;;1.10
60966;BMP180;46834;51.100;6.886;2022-12-18T10:28:29;102006.00;;;1.10
60966;BMP180;46834;51.100;6.886;2022-12-18T10:30:55;102009.00;;;1.20
60966;BMP180;46834;51.100;6.886;2022-12-18T10:33:24;102020.00;;;1.20
60966;BMP180;46834;51.100;6.886;2022-12-18T10:35:53;102009.00;;;1.30
60966;BMP180;46834;51.100;6.886;2022-12-18T10:51:07;101994.00;;;1.40
60966;BMP180;46834;51.100;6.886;2022-12-18T10:53:36;101970.00;;;1.50
60966;BMP180;46834;51.100;6.886;2022-12-18T10:56:05;101964.00;;;1.50
60966;BMP180;46834;51.100;6.886;2022-12-18T10:58:37;101956.00;;;1.50
60966;BMP180;46834;51.100;6.886;2022-12-18T11:01:13;101975.00;;;1.60
60966;BMP180;46834;51.100;6.886;2022-12-18T11:03:43;101970.00;;;1.60
60966;BMP180;46834;51.100;6.886;2022-12-18T11:08:35;101963.00;;;1.70
60966;BMP180;46834;51.100;6.886;2022-12-18T11:11:02;101956.00;;;1.80
60966;BMP180;46834;51.100;6.886;2022-12-18T11:13:30;101957.00;;;1.80
60966;BMP180;46834;51.100;6.886;2022-12-18T11:15:58;101960.00;;;1.80
60966;BMP180;46834;51.100;6.886;2022-12-18T11:18:30;101964.00;;;1.80
60966;BMP180;46834;51.100;6.886;2022-12-18T11:21:06;101960.00;;;1.80
60966;BMP180;46834;51.100;6.886;2022-12-18T11:23:34;101949.00;;;1.90
60966;BMP180;46834;51.100;6.886;2022-12-18T11:26:03;101964.00;;;1.90
60966;BMP180;46834;51.100;6.886;2022-12-18T11:28:45;101973.00;;;1.90
60966;BMP180;46834;51.100;6.886;2022-12-18T11:31:25;101970.00;;;1.90
60966;BMP180;46834;51.100;6.886;2022-12-18T11:34:27;101959.00;;;2.00
60966;BMP180;46834;51.100;6.886;2022-12-18T11:36:54;101954.00;;;2.00
60966;BMP180;46834;51.100;6.886;2022-12-18T11:39:33;101944.00;;;2.00
60966;BMP180;46834;51.100;6.886;2022-12-18T11:42:16;101944.00;;;2.00
60966;BMP180;46834;51.100;6.886;2022-12-18T11:47:44;101945.00;;;2.10
60966;BMP180;46834;51.100;6.886;2022-12-18T11:50:19;101935.00;;;2.10
60966;BMP180;46834;51.100;6.886;2022-12-18T11:52:46;101944.00;;;2.20
60966;BMP180;46834;51.100;6.886;2022-12-18T11:58:05;101919.00;;;2.20
60966;BMP180;46834;51.100;6.886;2022-12-18T12:00:44;101931.00;;;2.20
60966;BMP180;46834;51.100;6.886;2022-12-18T12:03:45;101920.00;;;2.20
60966;BMP180;46834;51.100;6.886;2022-12-18T12:12:39;101921.00;;;2.30
60966;BMP180;46834;51.100;6.886;2022-12-18T12:15:34;101929.00;;;2.30
60966;BMP180;46834;51.100;6.886;2022-12-18T12:21:16;101929.00;;;2.30
60966;BMP180;46834;51.100;6.886;2022-12-18T12:32:54;101901.00;;;2.30
60966;BMP180;46834;51.100;6.886;2022-12-18T12:35:46;101911.00;;;2.30
60966;BMP180;46834;51.100;6.886;2022-12-18T12:38:26;101917.00;;;2.30
60966;BMP180;46834;51.100;6.886;2022-12-18T12:41:00;101921.00;;;2.30
60966;BMP180;46834;51.100;6.886;2022-12-18T12:43:44;101913.00;;;2.30
60966;BMP180;46834;51.100;6.886;2022-12-18T12:46:16;101905.00;;;2.30
60966;BMP180;46834;51.100;6.886;2022-12-18T12:48:55;101902.00;;;2.30
60966;BMP180;46834;51.100;6.886;2022-12-18T12:51:40;101906.00;;;2.30
60966;BMP180;46834;51.100;6.886;2022-12-18T12:54:17;101894.00;;;2.30
60966;BMP180;46834;51.100;6.886;2022-12-18T13:00:16;101901.00;;;2.30
60966;BMP180;46834;51.100;6.886;2022-12-18T13:03:14;101887.00;;;2.20
60966;BMP180;46834;51.100;6.886;2022-12-18T13:05:54;101904.00;;;2.30
60966;BMP180;46834;51.100;6.886;2022-12-18T13:08:26;101890.00;;;2.30
60966;BMP180;46834;51.100;6.886;2022-12-18T13:10:54;101895.00;;;2.30
60966;BMP180;46834;51.100;6.886;2022-12-18T13:13:52;101892.00;;;2.30
60966;BMP180;46834;51.100;6.886;2022-12-18T13:16:25;101886.00;;;2.30
60966;BMP180;46834;51.100;6.886;2022-12-18T13:18:57;101890.00;;;2.20
60966;BMP180;46834;51.100;6.886;2022-12-18T13:21:33;101877.00;;;2.20
60966;BMP180;46834;51.100;6.886;2022-12-18T13:24:30;101870.00;;;2.20
60966;BMP180;46834;51.100;6.886;2022-12-18T13:26:56;101883.00;;;2.20
60966;BMP180;46834;51.100;6.886;2022-12-18T13:29:45;101874.00;;;2.10
60966;BMP180;46834;51.100;6.886;2022-12-18T13:32:37;101865.00;;;2.10
60966;BMP180;46834;51.100;6.886;2022-12-18T13:37:54;101844.00;;;2.10
60966;BMP180;46834;51.100;6.886;2022-12-18T13:43:24;101833.00;;;2.10
60966;BMP180;46834;51.100;6.886;2022-12-18T13:51:20;101828.00;;;2.10
60966;BMP180;46834;51.100;6.886;2022-12-18T13:53:58;101817.00;;;2.10
60966;BMP180;46834;51.100;6.886;2022-12-18T13:56:31;101829.00;;;2.10
60966;BMP180;46834;51.100;6.886;2022-12-18T13:59:22;101825.00;;;2.10
60966;BMP180;46834;51.100;6.886;2022-12-18T14:02:04;101821.00;;;2.10
60966;BMP180;46834;51.100;6.886;2022-12-18T14:04:35;101824.00;;;2.10
60966;BMP180;46834;51.100;6.886;2022-12-18T14:07:13;101819.00;;;2.10
60966;BMP180;46834;51.100;6.886;2022-12-18T14:09:45;101823.00;;;2.10
60966;BMP180;46834;51.100;6.886;2022-12-18T14:12:30;101820.00;;;2.10
60966;BMP180;46834;51.100;6.886;2022-12-18T14:17:59;101806.00;;;2.10
60966;BMP180;46834;51.100;6.886;2022-12-18T14:20:27;101814.00;;;2.10
60966;BMP180;46834;51.100;6.886;2022-12-18T14:22:54;101801.00;;;2.10
60966;BMP180;46834;51.100;6.886;2022-12-18T14:25:27;101799.00;;;2.10
60966;BMP180;46834;51.100;6.886;2022-12-18T14:30:40;101788.00;;;2.00
60966;BMP180;46834;51.100;6.886;2022-12-18T14:33:22;101796.00;;;2.00
60966;BMP180;46834;51.100;6.886;2022-12-18T14:36:01;101792.00;;;2.00
60966;BMP180;46834;51.100;6.886;2022-12-18T14:38:39;101784.00;;;1.90
60966;BMP180;46834;51.100;6.886;2022-12-18T14:41:15;101789.00;;;1.80
60966;BMP180;46834;51.100;6.886;2022-12-18T14:43:44;101774.00;;;1.90
60966;BMP180;46834;51.100;6.886;2022-12-18T14:46:34;101776.00;;;1.80
60966;BMP180;46834;51.100;6.886;2022-12-18T14:51:57;101754.00;;;1.90
60966;BMP180;46834;51.100;6.886;2022-12-18T14:54:24;101780.00;;;1.90
60966;BMP180;46834;51.100;6.886;2022-12-18T14:59:27;101787.00;;;1.90
60966;BMP180;46834;51.100;6.886;2022-12-18T15:04:46;101784.00;;;2.00
60966;BMP180;46834;51.100;6.886;2022-12-18T15:07:22;101775.00;;;1.90
60966;BMP180;46834;51.100;6.886;2022-12-18T15:10:13;101771.00;;;1.90
60966;BMP180;46834;51.100;6.886;2022-12-18T15:12:47;101753.00;;;1.90
60966;BMP180;46834;51.100;6.886;2022-12-18T15:18:04;101759.00;;;1.90
60966;BMP180;46834;51.100;6.886;2022-12-18T15:20:40;101754.00;;;1.80
60966;BMP180;46834;51.100;6.886;2022-12-18T15:26:00;101753.00;;;1.80
60966;BMP180;46834;51.100;6.886;2022-12-18T15:34:10;101753.00;;;1.80
60966;BMP180;46834;51.100;6.886;2022-12-18T15:36:37;101755.00;;;1.80
60966;BMP180;46834;51.100;6.886;2022-12-18T15:39:04;101756.00;;;1.80
60966;BMP180;46834;51.100;6.886;2022-12-18T15:41:34;101768.00;;;1.80
60966;BMP180;46834;51.100;6.886;2022-12-18T15:44:00;101753.00;;;1.90
60966;BMP180;46834;51.100;6.886;2022-12-18T15:46:25;101746.00;;;1.80
60966;BMP180;46834;51.100;6.886;2022-12-18T15:48:55;101756.00;;;1.80
60966;BMP180;46834;51.100;6.886;2022-12-18T15:51:28;101752.00;;;1.80
60966;BMP180;46834;51.100;6.886;2022-12-18T15:53:58;101749.00;;;1.90
60966;BMP180;46834;51.100;6.886;2022-12-18T15:56:25;101752.00;;;1.90
60966;BMP180;46834;51.100;6.886;2022-12-18T15:59:18;101753.00;;;1.80
60966;BMP180;46834;51.100;6.886;2022-12-18T16:01:47;101743.00;;;1.80
60966;BMP180;46834;51.100;6.886;2022-12-18T16:04:15;101746.00;;;1.80
60966;BMP180;46834;51.100;6.886;2022-12-18T16:06:42;101743.00;;;1.80
60966;BMP180;46834;51.100;6.886;2022-12-18T16:09:08;101756.00;;;1.80
60966;BMP180;46834;51.100;6.886;2022-12-18T16:11:36;101757.00;;;1.80
60966;BMP180;46834;51.100;6.886;2022-12-18T16:14:27;101773.00;;;1.70